Time;durP1;ratioP1;P1;durP2;ratioP2;P2;SDS_P1;SDS_P2;PMS_P1;PMS_P2;Temp;Humidity;BMP_temperature;BMP_pressure;BME280_temperature;BME280_humidity;BME280_pressure;Samples;Min_cycle;Max_cycle;Signal;HPM_P1;HPM_P2
2022/11/04 00:01:57;;;;;;;3.23;3.00;;;10.80;99.90;;;;;;5034230;28;20282;-66
2022/11/04 00:04:25;;;;;;;2.40;2.20;;;10.90;99.90;;;;;;5027213;28;20215;-67
2022/11/04 00:06:51;;;;;;;2.40;2.03;;;10.80;99.90;;;;;;5035030;28;20195;-66
2022/11/04 00:09:24;;;;;;;4.50;1.97;;;10.70;99.90;;;;;;5023766;28;20191;-67
2022/11/04 00:14:35;;;;;;;4.07;1.70;;;10.80;99.90;;;;;;5024123;28;20198;-67
2022/11/04 00:17:21;;;;;;;7.47;1.77;;;10.70;99.90;;;;;;5034652;28;20204;-68
2022/11/04 00:30:56;;;;;;;1.43;1.33;;;10.60;99.90;;;;;;5035670;28;20245;-67
2022/11/04 00:33:24;;;;;;;7.33;2.47;;;10.50;99.90;;;;;;5041619;28;20295;-67
2022/11/04 00:35:52;;;;;;;2.67;2.47;;;10.40;99.90;;;;;;5034423;28;20524;-66
2022/11/04 00:38:18;;;;;;;1.30;1.20;;;10.50;99.90;;;;;;5029154;28;20194;-67
2022/11/04 00:40:44;;;;;;;2.33;1.30;;;10.50;99.90;;;;;;5017907;28;20214;-67
2022/11/04 00:43:10;;;;;;;2.83;1.30;;;10.70;99.90;;;;;;5035026;28;20186;-67
2022/11/04 00:45:36;;;;;;;2.50;1.50;;;10.70;99.90;;;;;;5033955;28;20285;-67
2022/11/04 00:48:01;;;;;;;3.03;1.30;;;10.50;99.90;;;;;;5009555;28;20194;-67
2022/11/04 00:50:27;;;;;;;1.80;1.70;;;10.40;99.90;;;;;;5028498;28;20191;-67
2022/11/04 00:53:00;;;;;;;2.30;2.00;;;10.60;99.90;;;;;;5025560;28;20179;-67
2022/11/04 00:55:26;;;;;;;2.53;2.30;;;10.50;99.90;;;;;;5033775;28;20281;-67
2022/11/04 00:57:53;;;;;;;4.17;1.53;;;10.50;99.90;;;;;;5031399;28;20186;-67
2022/11/04 01:00:19;;;;;;;4.53;2.40;;;10.70;99.90;;;;;;5022478;28;20691;-67
2022/11/04 01:02:45;;;;;;;7.10;2.50;;;10.80;99.90;;;;;;5016694;28;20183;-68
2022/11/04 01:05:11;;;;;;;2.70;2.03;;;10.80;99.90;;;;;;5022979;28;20375;-68
2022/11/04 01:07:37;;;;;;;2.87;2.03;;;10.90;99.90;;;;;;5034939;28;20229;-68
2022/11/04 01:10:03;;;;;;;8.60;3.07;;;10.90;99.90;;;;;;5014667;28;20191;-68
2022/11/04 01:12:29;;;;;;;4.53;2.20;;;10.90;99.90;;;;;;5029335;28;20187;-68
2022/11/04 01:14:55;;;;;;;5.17;2.03;;;10.90;99.90;;;;;;5029744;28;20191;-67
2022/11/04 01:17:20;;;;;;;2.90;2.23;;;11.00;99.90;;;;;;5028760;28;20656;-68
2022/11/04 01:19:46;;;;;;;3.70;2.17;;;11.10;99.90;;;;;;5021520;28;20214;-67
2022/11/04 01:22:12;;;;;;;5.03;2.20;;;11.10;99.90;;;;;;5016777;28;20274;-67
2022/11/04 01:24:37;;;;;;;3.70;2.43;;;11.10;99.90;;;;;;5033090;28;20194;-65
2022/11/04 01:27:03;;;;;;;5.97;1.93;;;11.10;99.90;;;;;;5016847;28;20632;-67
2022/11/04 01:29:28;;;;;;;7.50;2.07;;;11.10;99.90;;;;;;5034711;28;20206;-67
2022/11/04 01:31:54;;;;;;;7.23;2.40;;;11.00;99.90;;;;;;5034098;28;20190;-66
2022/11/04 01:34:20;;;;;;;3.30;1.80;;;11.00;99.90;;;;;;5032797;28;20198;-69
2022/11/04 01:36:45;;;;;;;2.47;1.73;;;11.00;99.90;;;;;;5030350;28;20186;-66
2022/11/04 01:39:12;;;;;;;5.13;2.27;;;10.90;99.90;;;;;;5023857;28;20222;-67
2022/11/04 01:41:38;;;;;;;4.47;2.00;;;10.90;99.90;;;;;;5025845;28;20191;-66
2022/11/04 01:44:41;;;;;;;1.97;1.87;;;10.80;99.90;;;;;;5033133;28;20723;-67
2022/11/04 01:47:25;;;;;;;7.33;1.60;;;10.90;99.90;;;;;;5032466;28;20190;-67
2022/11/04 01:49:55;;;;;;;4.03;1.93;;;10.90;99.90;;;;;;5034095;28;20260;-67
2022/11/04 01:52:36;;;;;;;7.47;2.10;;;10.90;99.90;;;;;;5026951;28;20266;-67
2022/11/04 01:55:08;;;;;;;2.73;2.53;;;10.90;99.90;;;;;;5032619;28;20198;-67
2022/11/04 01:57:39;;;;;;;6.73;1.83;;;11.00;99.90;;;;;;5024852;28;20278;-67
2022/11/04 02:00:06;;;;;;;5.47;2.00;;;11.00;99.90;;;;;;5031824;28;20221;-67
2022/11/04 02:02:34;;;;;;;3.43;1.77;;;11.00;99.90;;;;;;5032777;28;20187;-67
2022/11/04 02:05:00;;;;;;;6.07;2.93;;;10.90;99.90;;;;;;5028224;28;20655;-67
2022/11/04 02:07:27;;;;;;;7.63;3.53;;;10.90;99.90;;;;;;5030987;28;20194;-67
2022/11/04 02:09:54;;;;;;;3.30;2.03;;;11.00;99.90;;;;;;5019981;28;20188;-67
2022/11/04 02:15:04;;;;;;;1.93;1.73;;;10.80;99.90;;;;;;5031633;28;20261;-67
2022/11/04 02:17:58;;;;;;;2.43;1.57;;;10.90;99.90;;;;;;5018728;28;20191;-67
2022/11/04 02:21:05;;;;;;;2.80;1.60;;;10.90;99.90;;;;;;5007462;28;20261;-67
2022/11/04 02:23:56;;;;;;;3.63;1.67;;;10.90;99.90;;;;;;5036103;28;20233;-67
2022/11/04 02:26:34;;;;;;;1.83;1.50;;;10.80;99.90;;;;;;5018325;28;20199;-66
2022/11/04 02:29:25;;;;;;;2.30;1.83;;;10.70;99.90;;;;;;5014813;28;20656;-67
2022/11/04 02:31:59;;;;;;;4.57;1.43;;;10.70;99.90;;;;;;5014442;28;20225;-67
2022/11/04 02:34:25;;;;;;;3.47;1.83;;;10.70;99.90;;;;;;5019617;28;20182;-67
2022/11/04 02:37:18;;;;;;;3.73;1.80;;;10.70;99.90;;;;;;5015892;28;20188;-67
2022/11/04 02:40:04;;;;;;;3.00;1.80;;;10.70;99.90;;;;;;5016923;28;20199;-67
2022/11/04 02:42:58;;;;;;;4.20;1.53;;;10.70;99.90;;;;;;5014300;28;20187;-67
2022/11/04 02:45:43;;;;;;;4.00;2.93;;;10.80;99.90;;;;;;5023883;28;20175;-65
2022/11/04 02:48:23;;;;;;;3.57;1.87;;;10.70;99.90;;;;;;5026127;28;20182;-67
2022/11/04 02:50:59;;;;;;;4.73;1.50;;;10.70;99.90;;;;;;5032098;28;20261;-67
2022/11/04 02:53:43;;;;;;;5.70;3.07;;;10.70;99.90;;;;;;5028171;28;20226;-67
2022/11/04 02:56:10;;;;;;;4.47;1.70;;;10.70;99.90;;;;;;5037759;28;20185;-67
2022/11/04 02:58:43;;;;;;;4.77;1.60;;;10.80;99.90;;;;;;5030525;28;20249;-67
2022/11/04 03:01:13;;;;;;;3.80;2.87;;;10.80;99.90;;;;;;5022508;28;20180;-66
2022/11/04 03:03:45;;;;;;;2.97;2.47;;;10.90;99.90;;;;;;5029524;28;20182;-67
2022/11/04 03:06:13;;;;;;;10.93;3.07;;;10.90;99.90;;;;;;5024738;28;20262;-67
2022/11/04 03:08:44;;;;;;;5.37;2.37;;;11.10;99.90;;;;;;5022452;28;20202;-67
2022/11/04 03:11:14;;;;;;;4.03;2.43;;;11.00;99.90;;;;;;5032294;28;20252;-67
2022/11/04 03:14:09;;;;;;;4.60;2.27;;;11.00;99.90;;;;;;5028600;28;20209;-67
2022/11/04 03:16:36;;;;;;;5.30;2.43;;;11.10;99.90;;;;;;4992178;28;20194;-68
2022/11/04 03:19:08;;;;;;;2.70;2.27;;;11.10;99.90;;;;;;5018259;28;20211;-68
2022/11/04 03:21:40;;;;;;;4.43;2.70;;;11.10;99.90;;;;;;5025007;28;20186;-68
2022/11/04 03:24:05;;;;;;;4.77;2.50;;;11.00;99.90;;;;;;5032909;28;20201;-68
2022/11/04 03:26:43;;;;;;;6.27;2.67;;;11.10;99.90;;;;;;5000870;28;20194;-68
2022/11/04 03:29:32;;;;;;;3.03;2.57;;;11.10;99.90;;;;;;5030990;28;20230;-68
2022/11/04 03:32:13;;;;;;;5.50;2.80;;;11.10;99.90;;;;;;5024296;28;20507;-68
2022/11/04 03:34:38;;;;;;;3.73;2.73;;;11.10;99.90;;;;;;5041986;28;20182;-68
2022/11/04 03:37:04;;;;;;;3.07;2.57;;;11.10;99.90;;;;;;5037432;28;20265;-68
2022/11/04 03:39:30;;;;;;;10.40;3.20;;;11.10;99.90;;;;;;5028261;28;20225;-68
2022/11/04 03:41:59;;;;;;;6.07;2.63;;;11.20;99.90;;;;;;5030891;28;20202;-68
2022/11/04 03:44:25;;;;;;;3.00;2.70;;;11.20;99.90;;;;;;5030689;28;20619;-68
2022/11/04 03:46:54;;;;;;;3.00;2.23;;;11.40;99.90;;;;;;5014804;28;20601;-68
2022/11/04 03:49:22;;;;;;;6.93;2.70;;;11.40;99.90;;;;;;5030819;28;20179;-68
2022/11/04 03:51:48;;;;;;;3.70;2.95;;;11.40;99.90;;;;;;5022599;28;20530;-67
2022/11/04 03:54:15;;;;;;;5.30;2.65;;;11.40;99.90;;;;;;5013246;28;20179;-68
2022/11/04 03:56:43;;;;;;;2.97;2.78;;;11.30;99.90;;;;;;5007229;28;20648;-68
2022/11/04 04:00:00;;;;;;;6.63;2.38;;;11.30;99.90;;;;;;5025380;28;20297;-68
2022/11/04 04:02:58;;;;;;;4.07;3.38;;;11.30;99.90;;;;;;5027627;28;20186;-68
2022/11/04 04:05:30;;;;;;;3.90;3.47;;;11.50;99.90;;;;;;5029608;28;20651;-68
2022/11/04 04:08:09;;;;;;;2.73;1.87;;;11.50;99.90;;;;;;5034073;28;20174;-68
2022/11/04 04:10:51;;;;;;;2.80;2.13;;;11.50;99.90;;;;;;5031085;28;20186;-68
2022/11/04 04:13:36;;;;;;;2.93;2.37;;;11.50;99.90;;;;;;5020515;28;20187;-69
2022/11/04 04:16:09;;;;;;;5.97;2.80;;;11.50;99.90;;;;;;5031613;28;20179;-68
2022/11/04 04:18:39;;;;;;;2.73;2.40;;;11.50;99.90;;;;;;5024020;28;20270;-68
2022/11/04 04:21:10;;;;;;;3.23;2.97;;;11.40;99.90;;;;;;5030279;28;20194;-68
2022/11/04 04:29:09;;;;;;;5.23;2.00;;;11.20;99.90;;;;;;5017078;28;20215;-68
2022/11/04 04:31:49;;;;;;;3.97;2.20;;;11.10;99.90;;;;;;5019096;28;20190;-68
2022/11/04 04:34:26;;;;;;;3.83;2.30;;;11.30;99.90;;;;;;5013347;28;20176;-68
2022/11/04 04:37:15;;;;;;;5.50;2.77;;;11.30;99.90;;;;;;5030480;28;20185;-68
2022/11/04 04:45:30;;;;;;;3.65;2.63;;;11.30;99.90;;;;;;5008580;28;20225;-68
2022/11/04 04:47:56;;;;;;;4.88;2.35;;;11.30;99.90;;;;;;5026926;28;20201;-67
2022/11/04 04:50:25;;;;;;;3.33;2.63;;;11.30;99.90;;;;;;5027448;28;20528;-67
2022/11/04 04:52:53;;;;;;;3.20;2.42;;;11.60;99.90;;;;;;5030774;28;20257;-68
2022/11/04 04:55:19;;;;;;;5.22;2.22;;;11.40;99.90;;;;;;5029206;28;20191;-68
2022/11/04 04:57:45;;;;;;;3.05;2.38;;;11.20;99.90;;;;;;5029282;28;20190;-67
2022/11/04 05:00:14;;;;;;;2.80;1.90;;;11.30;99.90;;;;;;5034676;28;20210;-67
2022/11/04 05:02:40;;;;;;;4.47;2.22;;;11.20;99.90;;;;;;5019380;28;20201;-68
2022/11/04 05:05:06;;;;;;;3.08;2.42;;;11.20;99.90;;;;;;5004890;28;20277;-68
2022/11/04 05:07:32;;;;;;;4.63;2.42;;;11.20;99.90;;;;;;5030837;28;20281;-68
2022/11/04 05:09:57;;;;;;;8.00;2.90;;;11.10;99.90;;;;;;5034166;28;20298;-68
2022/11/04 05:12:23;;;;;;;5.65;2.75;;;11.20;99.90;;;;;;5030816;28;20607;-68
2022/11/04 05:14:49;;;;;;;3.40;2.40;;;11.30;99.90;;;;;;5030420;28;20206;-68
2022/11/04 05:17:14;;;;;;;5.57;2.17;;;11.30;99.90;;;;;;5032710;28;20228;-68
2022/11/04 05:19:40;;;;;;;5.93;2.78;;;11.30;99.90;;;;;;5022112;28;20315;-67
2022/11/04 05:22:06;;;;;;;8.55;2.60;;;11.20;99.90;;;;;;5033096;28;20678;-68
2022/11/04 05:24:31;;;;;;;7.32;2.47;;;11.10;99.90;;;;;;5017040;28;20191;-68
2022/11/04 05:26:57;;;;;;;5.45;2.67;;;11.20;99.90;;;;;;5013287;28;20647;-68
2022/11/04 05:29:23;;;;;;;3.58;2.17;;;11.30;99.90;;;;;;5034697;28;20206;-67
2022/11/04 05:31:48;;;;;;;2.85;2.58;;;11.30;99.90;;;;;;5027961;28;20198;-69
2022/11/04 05:34:14;;;;;;;3.25;2.35;;;11.30;99.90;;;;;;5016033;28;20183;-67
2022/11/04 05:36:40;;;;;;;4.30;3.38;;;11.20;99.90;;;;;;5015730;28;20187;-68
2022/11/04 05:39:06;;;;;;;3.67;2.15;;;11.20;99.90;;;;;;5031778;28;20243;-67
2022/11/04 05:41:36;;;;;;;5.78;2.10;;;11.20;99.90;;;;;;5027433;28;20717;-66
2022/11/04 05:44:03;;;;;;;7.72;2.15;;;11.40;99.90;;;;;;5029281;28;20183;-66
2022/11/04 05:46:29;;;;;;;7.97;3.05;;;11.40;99.90;;;;;;5028500;28;20187;-66
2022/11/04 05:48:55;;;;;;;7.95;2.05;;;11.50;99.90;;;;;;5021666;28;20191;-66
2022/11/04 05:51:24;;;;;;;3.33;2.50;;;11.50;99.90;;;;;;5029006;28;20191;-66
2022/11/04 05:53:49;;;;;;;3.55;2.25;;;11.50;99.90;;;;;;5032743;28;20205;-66
2022/11/04 05:56:15;;;;;;;4.53;2.63;;;11.60;99.90;;;;;;5019646;28;20649;-66
2022/11/04 05:58:41;;;;;;;6.65;2.28;;;11.70;99.90;;;;;;5027598;28;20199;-66
2022/11/04 06:01:26;;;;;;;4.78;2.50;;;11.80;99.90;;;;;;5017977;28;20192;-66
2022/11/04 06:03:53;;;;;;;5.67;2.67;;;11.80;99.90;;;;;;5028036;28;20187;-66
2022/11/04 06:06:20;;;;;;;5.93;2.37;;;11.80;99.90;;;;;;5023519;28;20213;-66
2022/11/04 06:08:46;;;;;;;6.40;2.13;;;11.80;99.90;;;;;;5033262;28;20190;-66
2022/11/04 06:11:11;;;;;;;9.47;3.13;;;11.60;99.90;;;;;;5027173;28;20258;-65
2022/11/04 06:13:37;;;;;;;2.97;2.67;;;11.70;99.90;;;;;;5027617;28;20245;-66
2022/11/04 06:16:03;;;;;;;2.73;2.10;;;11.60;99.90;;;;;;5018955;28;20685;-66
2022/11/04 06:18:28;;;;;;;7.03;3.05;;;11.60;99.90;;;;;;5029234;28;20672;-66
2022/11/04 06:21:13;;;;;;;7.13;1.92;;;11.50;99.90;;;;;;5027056;28;20210;-66
2022/11/04 06:23:40;;;;;;;5.20;2.90;;;11.50;99.90;;;;;;5017088;28;20599;-65
2022/11/04 06:26:06;;;;;;;3.00;2.40;;;11.40;99.90;;;;;;5030128;28;20277;-66
2022/11/04 06:28:32;;;;;;;6.13;2.85;;;11.30;99.90;;;;;;5028729;28;20687;-66
2022/11/04 06:31:00;;;;;;;4.35;2.60;;;11.30;99.90;;;;;;5031713;28;20194;-67
2022/11/04 06:33:26;;;;;;;2.63;2.38;;;11.30;99.90;;;;;;5023887;28;20608;-67
2022/11/04 06:35:55;;;;;;;4.15;2.00;;;11.30;99.90;;;;;;5018493;28;20648;-67
2022/11/04 06:38:21;;;;;;;3.28;2.50;;;11.30;99.90;;;;;;5020960;28;20186;-66
2022/11/04 06:40:46;;;;;;;4.57;2.50;;;11.30;99.90;;;;;;5031902;28;20632;-67
2022/11/04 06:43:12;;;;;;;5.78;3.38;;;11.20;99.90;;;;;;5007659;28;20673;-67
2022/11/04 06:45:38;;;;;;;4.68;3.55;;;11.10;99.90;;;;;;5033011;28;20622;-67
2022/11/04 06:48:04;;;;;;;7.53;3.63;;;11.30;99.90;;;;;;5019809;28;20266;-68
2022/11/04 06:50:29;;;;;;;3.15;2.67;;;11.40;99.90;;;;;;5024990;28;20222;-67
2022/11/04 06:52:55;;;;;;;5.30;3.00;;;11.50;99.90;;;;;;5009423;28;20329;-68
2022/11/04 06:55:21;;;;;;;3.70;2.53;;;11.40;99.90;;;;;;5029992;28;20225;-68
2022/11/04 06:57:46;;;;;;;8.50;3.33;;;11.30;99.90;;;;;;5024556;28;20194;-67
2022/11/04 07:00:12;;;;;;;5.72;2.80;;;11.30;99.90;;;;;;5023104;28;20242;-65
2022/11/04 07:02:38;;;;;;;6.78;3.72;;;11.20;99.90;;;;;;5029661;28;20317;-69
2022/11/04 07:05:04;;;;;;;5.72;2.28;;;11.20;99.90;;;;;;5004999;28;20272;-67
2022/11/04 07:07:30;;;;;;;6.57;2.80;;;11.20;99.90;;;;;;5030905;28;20293;-66
2022/11/04 07:09:56;;;;;;;4.00;3.70;;;11.30;99.90;;;;;;5041807;28;20197;-66
2022/11/04 07:12:23;;;;;;;3.00;2.70;;;11.20;99.90;;;;;;5016593;28;20190;-67
2022/11/04 07:14:49;;;;;;;4.15;3.75;;;11.30;99.90;;;;;;5031685;28;20178;-66
2022/11/04 07:17:15;;;;;;;3.33;3.05;;;11.30;99.90;;;;;;5027064;28;20183;-66
2022/11/04 07:19:41;;;;;;;6.07;3.90;;;11.20;99.90;;;;;;5014863;28;20202;-68
2022/11/04 07:22:07;;;;;;;3.25;2.80;;;11.20;99.90;;;;;;5014925;28;20198;-67
2022/11/04 07:24:33;;;;;;;9.55;2.60;;;11.10;99.90;;;;;;5014179;28;20186;-68
2022/11/04 07:27:01;;;;;;;4.00;2.50;;;11.20;99.90;;;;;;5029283;28;20191;-67
2022/11/04 07:29:27;;;;;;;6.75;2.85;;;11.20;99.90;;;;;;5005431;28;20575;-68
2022/11/04 07:31:53;;;;;;;5.57;3.10;;;11.20;99.90;;;;;;5014367;28;20187;-67
2022/11/04 07:34:19;;;;;;;9.95;2.72;;;11.30;99.90;;;;;;5014699;28;20256;-66
2022/11/04 07:36:44;;;;;;;7.35;3.00;;;11.50;99.90;;;;;;5014516;28;20643;-67
2022/11/04 07:39:10;;;;;;;4.38;3.55;;;11.70;99.90;;;;;;5029376;28;20241;-69
2022/11/04 07:41:36;;;;;;;5.07;2.78;;;11.80;99.90;;;;;;5031992;28;20244;-66
2022/11/04 07:44:04;;;;;;;4.00;2.97;;;11.90;99.90;;;;;;5030061;28;20187;-68
2022/11/04 07:46:33;;;;;;;3.42;2.67;;;11.90;99.90;;;;;;5026589;28;20175;-66
2022/11/04 07:48:59;;;;;;;9.05;4.70;;;12.10;99.90;;;;;;5012129;28;20713;-69
2022/11/04 07:51:26;;;;;;;10.60;5.65;;;12.20;99.90;;;;;;5030365;28;20183;-67
2022/11/04 07:53:51;;;;;;;9.48;5.35;;;12.20;99.90;;;;;;5031199;28;20197;-68
2022/11/04 07:56:18;;;;;;;5.65;3.78;;;12.20;99.90;;;;;;5031339;28;20187;-67
2022/11/04 07:58:44;;;;;;;7.00;4.32;;;12.10;99.90;;;;;;5024843;28;20188;-68
2022/11/04 08:01:16;;;;;;;5.68;3.13;;;12.10;99.90;;;;;;5023719;28;20222;-68
2022/11/04 08:03:42;;;;;;;6.03;3.58;;;11.90;99.90;;;;;;5028773;28;20186;-69
2022/11/04 08:06:10;;;;;;;9.68;3.50;;;11.80;99.90;;;;;;5021226;28;20193;-67
2022/11/04 08:08:36;;;;;;;5.63;3.67;;;11.80;99.90;;;;;;5030434;28;20196;-68
2022/11/04 08:11:08;;;;;;;4.88;3.33;;;11.80;99.90;;;;;;5023770;28;20194;-68
2022/11/04 08:13:35;;;;;;;6.65;3.97;;;11.80;99.90;;;;;;5016673;28;20273;-67
2022/11/04 08:16:08;;;;;;;6.97;4.47;;;11.90;99.90;;;;;;5032913;28;20182;-67
2022/11/04 08:18:35;;;;;;;5.60;3.92;;;12.00;99.90;;;;;;5034011;28;20599;-67
2022/11/04 08:21:02;;;;;;;5.60;4.05;;;12.00;99.90;;;;;;4999919;28;20694;-69
2022/11/04 08:23:29;;;;;;;5.18;3.63;;;12.10;99.90;;;;;;5030200;28;20190;-67
2022/11/04 08:25:55;;;;;;;5.63;3.08;;;12.10;99.90;;;;;;5016625;28;20558;-69
2022/11/04 08:28:23;;;;;;;4.13;3.72;;;12.20;99.90;;;;;;5033715;28;20191;-67
2022/11/04 08:31:00;;;;;;;7.57;3.13;;;12.20;99.90;;;;;;5024137;28;20277;-67
2022/11/04 08:33:27;;;;;;;4.72;3.10;;;12.20;99.90;;;;;;5025961;28;20329;-67
2022/11/04 08:35:54;;;;;;;4.35;3.15;;;12.20;99.90;;;;;;5028098;28;20277;-67
2022/11/04 08:38:20;;;;;;;6.70;3.17;;;12.10;99.90;;;;;;5032428;28;20539;-67
2022/11/04 08:40:46;;;;;;;6.03;4.55;;;12.00;99.90;;;;;;5031816;28;20229;-67
2022/11/04 08:43:12;;;;;;;7.80;3.65;;;11.90;99.90;;;;;;5032106;28;20195;-68
2022/11/04 08:45:42;;;;;;;5.60;2.88;;;11.80;99.90;;;;;;5032767;28;20249;-67
2022/11/04 08:48:09;;;;;;;6.65;3.17;;;11.90;99.90;;;;;;5034834;28;20635;-65
2022/11/04 08:50:35;;;;;;;6.97;3.63;;;12.00;99.90;;;;;;5012128;28;20189;-67
2022/11/04 08:53:01;;;;;;;6.30;2.95;;;12.20;99.90;;;;;;5022357;28;20188;-67
2022/11/04 08:55:31;;;;;;;5.97;3.35;;;12.20;99.90;;;;;;5031771;28;20187;-67
2022/11/04 08:57:58;;;;;;;4.30;3.08;;;12.30;99.90;;;;;;5027963;28;20233;-67
2022/11/04 09:00:24;;;;;;;5.88;3.28;;;12.40;99.90;;;;;;5029886;28;20209;-68
2022/11/04 09:02:49;;;;;;;3.03;2.80;;;12.30;99.90;;;;;;5026493;28;20192;-67
2022/11/04 09:05:15;;;;;;;6.15;3.17;;;12.40;99.90;;;;;;5042761;28;20191;-67
2022/11/04 09:07:41;;;;;;;6.22;3.60;;;12.30;99.90;;;;;;5031804;28;20498;-68
2022/11/04 09:10:09;;;;;;;5.80;3.65;;;12.40;99.90;;;;;;5032305;28;20648;-68
2022/11/04 09:12:35;;;;;;;6.88;3.72;;;12.40;99.90;;;;;;5043560;28;20194;-67
2022/11/04 09:15:01;;;;;;;4.68;3.05;;;12.40;99.90;;;;;;5022165;28;20197;-67
2022/11/04 09:17:26;;;;;;;6.57;3.20;;;12.50;99.90;;;;;;5022979;28;20186;-66
2022/11/04 09:19:52;;;;;;;5.65;4.22;;;12.40;99.90;;;;;;5027866;28;20665;-67
2022/11/04 09:22:18;;;;;;;4.13;3.63;;;12.50;99.90;;;;;;5027218;28;20209;-70
2022/11/04 09:24:43;;;;;;;6.10;4.45;;;12.60;99.90;;;;;;5030625;28;20558;-67
2022/11/04 09:27:09;;;;;;;8.32;4.45;;;12.60;99.90;;;;;;5022702;28;20587;-67
2022/11/04 09:29:35;;;;;;;5.75;3.85;;;12.60;99.90;;;;;;5032070;28;20656;-67
2022/11/04 09:32:02;;;;;;;10.15;5.38;;;12.50;99.90;;;;;;5014834;28;20242;-67
2022/11/04 09:34:29;;;;;;;8.82;4.22;;;12.60;99.90;;;;;;5032339;28;20249;-68
2022/11/04 09:36:55;;;;;;;7.90;3.75;;;12.70;99.90;;;;;;5027014;28;20187;-67
2022/11/04 09:39:22;;;;;;;7.18;3.78;;;12.60;99.90;;;;;;5013753;28;20373;-67
2022/11/04 09:41:55;;;;;;;5.93;3.70;;;12.60;99.90;;;;;;5030362;28;20671;-67
2022/11/04 09:44:53;;;;;;;5.28;4.03;;;12.60;99.90;;;;;;5027663;28;20179;-68
2022/11/04 09:47:21;;;;;;;5.68;3.50;;;12.80;99.90;;;;;;5018087;28;20190;-68
2022/11/04 09:49:50;;;;;;;7.00;3.97;;;12.90;99.90;;;;;;5032663;28;20652;-69
2022/11/04 09:52:24;;;;;;;5.85;3.97;;;12.90;99.90;;;;;;5023702;28;20190;-70
2022/11/04 09:55:05;;;;;;;8.55;3.72;;;13.00;99.90;;;;;;5030072;28;20236;-69
2022/11/04 09:57:31;;;;;;;5.85;4.40;;;12.90;99.90;;;;;;5028542;28;20240;-67
2022/11/04 09:59:58;;;;;;;9.68;4.90;;;12.90;99.90;;;;;;5026064;28;20214;-67
2022/11/04 10:02:26;;;;;;;8.77;5.82;;;13.10;99.90;;;;;;5024308;28;20194;-67
2022/11/04 10:05:17;;;;;;;10.57;5.13;;;13.20;99.90;;;;;;5027342;28;20187;-68
2022/11/04 10:08:21;;;;;;;13.32;5.35;;;13.20;99.90;;;;;;5018939;28;20187;-67
2022/11/04 10:11:10;;;;;;;9.90;3.75;;;13.30;99.90;;;;;;5027447;28;20945;-68
2022/11/04 10:13:54;;;;;;;6.95;4.70;;;13.40;99.90;;;;;;5038060;28;20278;-66
2022/11/04 10:16:40;;;;;;;4.30;3.97;;;13.40;99.90;;;;;;5021693;28;20209;-69
2022/11/04 10:19:25;;;;;;;6.55;5.57;;;13.50;99.90;;;;;;5028790;28;20187;-68
2022/11/04 10:22:07;;;;;;;9.98;5.95;;;13.50;99.90;;;;;;5021785;28;20194;-66
2022/11/04 10:24:33;;;;;;;13.57;6.25;;;13.50;99.90;;;;;;5028047;28;20179;-69
2022/11/04 10:27:03;;;;;;;8.40;5.05;;;13.50;99.90;;;;;;5032182;28;20202;-67
2022/11/04 10:29:39;;;;;;;6.00;4.03;;;13.50;99.90;;;;;;5028654;28;20233;-67
2022/11/04 10:32:16;;;;;;;9.27;4.57;;;13.50;99.90;;;;;;5029046;28;20182;-72
2022/11/04 10:35:00;;;;;;;6.95;4.00;;;13.50;99.90;;;;;;5028285;28;20584;-70
2022/11/04 10:37:26;;;;;;;9.85;5.03;;;13.40;99.90;;;;;;5026315;28;20622;-68
2022/11/04 10:40:13;;;;;;;9.48;4.18;;;13.40;99.90;;;;;;5029889;28;20218;-68
2022/11/04 10:42:39;;;;;;;5.75;4.70;;;13.30;99.90;;;;;;5029816;28;20241;-70
2022/11/04 10:45:11;;;;;;;7.00;4.13;;;13.40;99.90;;;;;;5031086;28;20183;-70
2022/11/04 10:47:48;;;;;;;7.40;4.50;;;13.40;99.90;;;;;;5022542;28;20698;-69
2022/11/04 10:50:39;;;;;;;7.93;4.55;;;13.20;99.90;;;;;;5021199;28;20266;-71
2022/11/04 10:53:14;;;;;;;11.98;5.68;;;13.10;99.90;;;;;;4997907;28;20269;-68
2022/11/04 10:56:04;;;;;;;8.82;5.50;;;12.70;99.90;;;;;;5024667;28;20178;-68
2022/11/04 10:58:34;;;;;;;7.35;5.22;;;12.70;99.90;;;;;;5031429;28;20195;-68
2022/11/04 11:01:25;;;;;;;7.00;5.65;;;12.90;99.90;;;;;;5028617;28;20202;-69
2022/11/04 11:03:50;;;;;;;7.65;5.20;;;13.00;99.90;;;;;;5024237;28;20257;-67
2022/11/04 11:06:31;;;;;;;8.60;4.53;;;13.00;99.90;;;;;;5030227;28;20194;-68
2022/11/04 11:09:20;;;;;;;6.47;4.72;;;13.00;99.90;;;;;;5025182;28;20655;-66
2022/11/04 11:11:50;;;;;;;6.43;4.45;;;13.10;99.90;;;;;;5021296;28;20187;-69
2022/11/04 11:14:19;;;;;;;9.57;4.88;;;13.10;99.90;;;;;;5029094;28;20182;-69
2022/11/04 11:16:44;;;;;;;9.05;5.15;;;13.20;99.90;;;;;;5040398;28;20190;-69
2022/11/04 11:19:10;;;;;;;9.77;5.47;;;13.40;99.90;;;;;;5003768;28;20314;-69
2022/11/04 11:21:47;;;;;;;9.70;5.38;;;13.60;99.90;;;;;;5028845;28;20191;-68
2022/11/04 11:24:34;;;;;;;6.90;4.47;;;13.70;99.90;;;;;;5029883;28;20657;-69
2022/11/04 11:27:10;;;;;;;11.23;5.32;;;13.80;99.90;;;;;;5026171;28;20305;-69
2022/11/04 11:29:40;;;;;;;9.18;5.10;;;13.90;99.90;;;;;;5023414;28;20266;-67
2022/11/04 11:32:26;;;;;;;10.00;5.47;;;14.10;99.90;;;;;;5028082;28;20178;-69
2022/11/04 11:34:52;;;;;;;8.35;5.88;;;14.10;99.90;;;;;;5026574;28;20194;-68
2022/11/04 11:37:24;;;;;;;8.45;5.65;;;14.20;99.90;;;;;;5007656;28;20191;-69
2022/11/04 11:39:50;;;;;;;11.45;6.07;;;14.20;99.90;;;;;;5025017;28;20690;-70
2022/11/04 11:42:20;;;;;;;14.77;7.00;;;14.20;99.90;;;;;;5008755;28;20193;-69
2022/11/04 11:44:51;;;;;;;14.85;7.00;;;14.10;99.90;;;;;;5021751;28;20646;-69
2022/11/04 11:47:27;;;;;;;11.15;6.45;;;14.00;99.90;;;;;;5025857;28;20193;-69
2022/11/04 11:50:12;;;;;;;13.18;8.75;;;13.90;99.90;;;;;;5029611;28;20174;-69
2022/11/04 11:52:42;;;;;;;22.20;11.43;;;13.90;99.90;;;;;;5029364;28;20285;-69
2022/11/04 11:55:17;;;;;;;12.65;9.02;;;13.80;99.90;;;;;;5028175;28;20671;-68
2022/11/04 11:58:21;;;;;;;12.60;8.45;;;13.70;99.90;;;;;;5029414;28;20189;-65
2022/11/04 12:01:31;;;;;;;17.27;8.88;;;13.70;99.90;;;;;;5028737;28;20214;-66
2022/11/04 12:03:59;;;;;;;14.63;9.50;;;13.60;99.90;;;;;;4990441;28;20656;-68
2022/11/04 12:06:39;;;;;;;12.77;8.20;;;13.60;99.90;;;;;;5028296;28;20185;-68
2022/11/04 12:09:08;;;;;;;15.43;8.15;;;13.50;99.90;;;;;;5021981;28;20632;-68
2022/11/04 12:11:59;;;;;;;14.35;7.82;;;13.40;99.90;;;;;;5030471;28;20183;-67
2022/11/04 12:14:28;;;;;;;16.05;8.38;;;13.50;99.90;;;;;;5014164;28;20277;-66
2022/11/04 12:17:15;;;;;;;17.67;10.30;;;13.60;99.90;;;;;;5025888;28;20179;-67
2022/11/04 12:20:17;;;;;;;20.70;10.50;;;13.60;99.90;;;;;;5018549;28;20291;-69
2022/11/04 12:23:04;;;;;;;15.82;9.15;;;13.50;99.90;;;;;;5027313;28;20645;-68
2022/11/04 12:25:33;;;;;;;41.00;23.10;;;13.40;99.90;;;;;;5026891;28;20639;-68
2022/11/04 12:28:14;;;;;;;26.70;17.92;;;13.60;99.90;;;;;;5024154;28;20225;-67
2022/11/04 12:31:07;;;;;;;25.05;15.63;;;13.70;99.90;;;;;;5029095;28;20195;-66
2022/11/04 12:33:46;;;;;;;16.13;10.85;;;13.70;99.90;;;;;;5013657;28;20171;-67
2022/11/04 12:36:32;;;;;;;16.83;10.55;;;13.70;99.90;;;;;;5025315;28;20644;-67
2022/11/04 12:39:36;;;;;;;17.52;9.80;;;13.80;99.90;;;;;;5014025;28;20176;-68
2022/11/04 12:42:31;;;;;;;16.23;9.55;;;13.80;99.90;;;;;;5017741;28;20186;-67
2022/11/04 12:45:24;;;;;;;12.73;8.25;;;13.70;99.90;;;;;;5020528;28;20179;-67
2022/11/04 12:47:51;;;;;;;8.82;6.55;;;13.80;99.90;;;;;;5021000;28;20183;-68
2022/11/04 12:50:52;;;;;;;10.10;6.78;;;13.80;99.90;;;;;;5028447;28;20195;-68
2022/11/04 12:53:25;;;;;;;12.18;5.85;;;13.80;99.90;;;;;;5028322;28;20182;-67
2022/11/04 12:56:09;;;;;;;14.98;7.03;;;13.80;99.90;;;;;;5029987;28;20245;-67
2022/11/04 12:59:04;;;;;;;23.25;18.10;;;13.80;99.90;;;;;;5024529;28;20194;-67
2022/11/04 13:02:15;;;;;;;33.42;21.45;;;13.90;99.90;;;;;;5032549;28;20198;-67
2022/11/04 13:04:55;;;;;;;34.63;28.02;;;13.90;99.90;;;;;;4982569;28;20661;-67
2022/11/04 13:07:47;;;;;;;45.72;32.17;;;13.80;99.90;;;;;;4991086;28;20184;-67
2022/11/04 13:10:24;;;;;;;15.07;11.27;;;13.90;99.90;;;;;;5022823;28;20203;-67
2022/11/04 13:12:53;;;;;;;13.73;8.70;;;13.90;99.90;;;;;;5026800;28;20223;-66
2022/11/04 13:15:27;;;;;;;13.15;7.90;;;14.00;99.90;;;;;;5017613;28;20190;-67
2022/11/04 13:17:58;;;;;;;13.07;7.20;;;14.00;99.90;;;;;;5017937;28;20414;-67
2022/11/04 13:20:59;;;;;;;13.00;7.90;;;14.20;99.90;;;;;;5027601;28;20206;-67
2022/11/04 13:23:36;;;;;;;12.15;7.50;;;14.30;99.90;;;;;;5031453;28;20198;-68
2022/11/04 13:26:04;;;;;;;12.65;8.75;;;14.10;99.90;;;;;;5030220;28;20178;-68
2022/11/04 13:28:30;;;;;;;13.23;8.15;;;14.10;99.90;;;;;;5021998;28;20193;-69
2022/11/04 13:31:21;;;;;;;11.75;7.88;;;14.20;99.90;;;;;;5019065;28;20195;-67
2022/11/04 13:33:54;;;;;;;14.38;9.98;;;14.20;99.90;;;;;;5029958;28;20240;-67
2022/11/04 13:36:43;;;;;;;22.30;12.27;;;14.20;99.90;;;;;;5027515;28;20282;-68
2022/11/04 13:39:16;;;;;;;13.63;8.52;;;14.20;99.90;;;;;;5027858;28;20187;-67
2022/11/04 13:42:02;;;;;;;26.20;12.43;;;14.10;99.90;;;;;;5025649;28;20555;-68